Monarch, Montana
Current Conditions -  °F | °C
As of 10:56 AM on Saturday 20 Dec 2014 (Local Time) from KGFA Reporting Station
Scattered Clouds Scattered Clouds  
Wind Chill: 30°   Ceiling: Unl
Heat Index: 39°   Visibility: 10mi
Dew Point: 23°   Wind: 16mph
Humidity: 53%   Direction: 230°SW
Pressure: 29.86"   Gusts: 23mph
Location:  47.1°N, 110.83°W
Report Text: KGFA 201756Z AUTO 23014G20KT 10SM SCT100 04/M05 A2986 RMK AO2 SLP137 T00381050 10040 21016 58004
Loading
Personal Weather Stations






























Interactive Weather Map New forecast layout! Learn more

10-Day Weather Forecast

Advertisements
Track Severe Weather on mobile